Time;durP1;ratioP1;P1;durP2;ratioP2;P2;SDS_P1;SDS_P2;PMS_P1;PMS_P2;Temp;Humidity;BMP_temperature;BMP_pressure;BME280_temperature;BME280_humidity;BME280_pressure;Samples;Min_cycle;Max_cycle;Signal;HPM_P1;HPM_P2
2023/05/21 00:01:24;;;;;;;11.98;10.90;;;;;;;15.58;99.30;98360.81;4092022;28;20243;-44
2023/05/21 00:03:28;;;;;;;11.77;10.77;;;;;;;15.54;99.27;98362.47;4096275;28;20258;-45
2023/05/21 00:05:31;;;;;;;12.80;11.77;;;;;;;15.52;99.49;98359.19;4081477;28;20251;-44
2023/05/21 00:07:33;;;;;;;11.90;11.02;;;;;;;15.41;99.85;98360.34;4089571;28;20211;-44
2023/05/21 00:09:37;;;;;;;11.48;10.48;;;;;;;15.45;99.86;98357.84;4094011;28;20266;-45
2023/05/21 00:11:38;;;;;;;13.18;10.73;;;;;;;15.39;99.96;98359.81;4088077;28;20251;-43
2023/05/21 00:13:40;;;;;;;13.85;12.18;;;;;;;15.43;99.48;98360.88;4096179;28;20306;-45
2023/05/21 00:15:42;;;;;;;12.98;12.00;;;;;;;15.41;99.71;98356.75;4092453;28;20207;-44
2023/05/21 00:17:44;;;;;;;12.65;11.65;;;;;;;15.40;99.88;98347.66;4096850;28;20219;-44
2023/05/21 00:19:46;;;;;;;13.48;11.95;;;;;;;15.43;99.97;98344.31;4088138;28;20207;-44
2023/05/21 00:21:48;;;;;;;13.13;12.10;;;;;;;15.35;100.00;98339.41;4109864;28;20767;-44
2023/05/21 00:23:53;;;;;;;11.50;10.70;;;;;;;15.45;100.00;98336.63;4075388;29;20246;-45
2023/05/21 00:25:55;;;;;;;11.27;10.38;;;;;;;15.53;99.81;98347.03;4092517;28;20207;-44
2023/05/21 00:27:57;;;;;;;11.90;11.10;;;;;;;15.35;100.00;98336.66;4095143;28;20207;-44
2023/05/21 00:29:58;;;;;;;13.88;12.27;;;;;;;15.44;100.00;98334.94;4078570;29;20227;-44
2023/05/21 00:32:00;;;;;;;12.32;11.43;;;;;;;15.45;100.00;98339.38;4089908;28;21124;-44
2023/05/21 00:34:02;;;;;;;12.25;11.38;;;;;;;15.37;100.00;98339.16;4093443;28;20298;-44
2023/05/21 00:36:04;;;;;;;12.45;11.55;;;;;;;15.37;100.00;98345.47;4093448;28;20211;-43
2023/05/21 00:38:07;;;;;;;11.85;10.93;;;;;;;15.38;100.00;98329.75;4093445;28;20299;-44
2023/05/21 00:40:10;;;;;;;10.38;9.68;;;;;;;15.41;100.00;98334.69;4092269;28;20246;-44
2023/05/21 00:42:17;;;;;;;12.73;11.70;;;;;;;15.42;100.00;98334.41;4091216;28;20242;-44
2023/05/21 00:44:19;;;;;;;13.20;12.10;;;;;;;15.41;100.00;98327.25;4093005;28;20306;-44
2023/05/21 00:46:21;;;;;;;12.10;11.18;;;;;;;15.36;100.00;98324.50;4096473;28;20610;-44
2023/05/21 00:48:23;;;;;;;12.65;11.75;;;;;;;15.37;100.00;98323.41;4109613;28;20238;-44
2023/05/21 00:50:26;;;;;;;13.82;12.63;;;;;;;15.29;100.00;98326.72;4101912;28;20657;-44
2023/05/21 00:52:28;;;;;;;12.35;11.45;;;;;;;15.33;100.00;98318.75;4095876;28;20246;-44
2023/05/21 00:54:30;;;;;;;13.73;12.63;;;;;;;15.31;100.00;98324.50;4094398;28;20211;-44
2023/05/21 00:56:32;;;;;;;14.50;13.32;;;;;;;15.27;100.00;98331.72;4095751;28;20211;-44
2023/05/21 00:58:34;;;;;;;12.85;11.93;;;;;;;15.27;100.00;98328.97;4088005;28;20606;-44
2023/05/21 01:00:36;;;;;;;13.98;12.85;;;;;;;15.27;100.00;98328.97;4096045;28;20219;-44
2023/05/21 01:02:38;;;;;;;12.60;11.70;;;;;;;15.36;100.00;98324.50;4093767;28;20235;-45
2023/05/21 01:04:44;;;;;;;14.48;13.18;;;;;;;15.32;100.00;98328.97;4079353;29;20368;-43
2023/05/21 01:06:46;;;;;;;14.18;13.02;;;;;;;15.33;100.00;98327.03;4093148;28;20203;-44
2023/05/21 01:08:49;;;;;;;12.85;11.75;;;;;;;15.32;100.00;98315.19;4097499;28;20204;-44
2023/05/21 01:10:52;;;;;;;11.43;10.50;;;;;;;15.31;100.00;98319.00;4085707;28;20208;-44
2023/05/21 01:12:57;;;;;;;13.85;12.88;;;;;;;15.17;100.00;98309.72;4095241;28;20230;-44
2023/05/21 01:15:02;;;;;;;14.35;13.23;;;;;;;15.12;100.00;98308.91;4100202;28;20211;-45
2023/05/21 01:17:05;;;;;;;13.63;12.57;;;;;;;15.06;100.00;98305.38;4087193;28;20207;-43
2023/05/21 01:19:09;;;;;;;13.68;12.68;;;;;;;15.10;100.00;98311.94;4098453;28;20210;-44
2023/05/21 01:21:12;;;;;;;12.73;11.73;;;;;;;15.13;100.00;98305.88;4092361;28;20211;-44
2023/05/21 01:23:18;;;;;;;12.60;11.68;;;;;;;15.12;100.00;98295.97;4096382;28;20210;-44
2023/05/21 01:25:22;;;;;;;13.55;12.45;;;;;;;15.02;100.00;98298.78;4095446;28;20199;-44
2023/05/21 01:27:23;;;;;;;13.07;12.07;;;;;;;15.04;100.00;98295.75;4097873;28;20651;-44
2023/05/21 01:29:25;;;;;;;14.38;13.07;;;;;;;15.04;100.00;98291.03;4104046;28;21571;-44
2023/05/21 01:31:51;;;;;;;13.40;12.05;;;;;;;15.12;100.00;98293.22;4075806;29;20734;-45
2023/05/21 01:33:55;;;;;;;13.70;12.70;;;;;;;15.03;100.00;98289.41;4092068;28;20207;-44
2023/05/21 01:36:14;;;;;;;13.65;12.55;;;;;;;15.09;100.00;98277.22;4077672;29;20690;-44
2023/05/21 01:38:24;;;;;;;13.60;12.60;;;;;;;15.08;100.00;98283.88;4091446;28;20297;-44
2023/05/21 01:41:13;;;;;;;14.38;13.10;;;;;;;15.03;100.00;98281.13;4091057;28;20203;-45
2023/05/21 01:43:15;;;;;;;15.18;13.98;;;;;;;14.93;100.00;98277.59;4083611;28;20204;-44
2023/05/21 01:45:21;;;;;;;15.80;14.63;;;;;;;14.81;100.00;98279.88;4096149;28;20227;-45
2023/05/21 01:47:23;;;;;;;13.73;12.68;;;;;;;14.91;100.00;98280.63;4097318;28;20271;-44
2023/05/21 01:49:25;;;;;;;13.63;12.57;;;;;;;14.91;100.00;98280.63;4099949;28;20211;-44
2023/05/21 01:51:28;;;;;;;14.10;12.98;;;;;;;14.95;100.00;98283.66;4097882;28;20960;-44
2023/05/21 01:53:30;;;;;;;12.73;11.82;;;;;;;15.02;100.00;98293.25;4092348;28;20662;-45
2023/05/21 01:55:32;;;;;;;13.68;12.57;;;;;;;14.93;100.00;98286.72;4098852;28;20756;-44
2023/05/21 01:57:34;;;;;;;13.35;12.18;;;;;;;14.97;100.00;98282.25;4092124;28;20219;-44
2023/05/21 01:59:35;;;;;;;13.30;12.32;;;;;;;14.98;100.00;98283.94;4090632;28;20246;-44
2023/05/21 02:01:37;;;;;;;13.50;12.50;;;;;;;15.01;100.00;98277.00;4090740;28;20243;-44
2023/05/21 02:03:39;;;;;;;15.38;14.15;;;;;;;14.93;100.00;98283.94;4098653;28;20646;-44
2023/05/21 02:05:41;;;;;;;14.85;13.70;;;;;;;14.92;100.00;98276.81;4093814;28;20221;-45
2023/05/21 02:07:44;;;;;;;14.00;12.88;;;;;;;14.99;100.00;98276.47;4095974;28;20600;-44
2023/05/21 02:09:46;;;;;;;14.52;13.32;;;;;;;14.92;100.00;98282.31;4101137;28;20302;-44
2023/05/21 02:11:48;;;;;;;14.23;13.05;;;;;;;14.90;100.00;98280.94;4082164;28;20243;-44
2023/05/21 02:13:50;;;;;;;13.43;12.35;;;;;;;14.89;100.00;98282.84;4098250;28;20695;-45
2023/05/21 02:15:53;;;;;;;13.73;12.65;;;;;;;14.88;100.00;98275.72;4091204;28;20257;-45
2023/05/21 02:17:57;;;;;;;13.50;12.50;;;;;;;14.90;100.00;98267.97;4080870;28;20575;-43
2023/05/21 02:20:11;;;;;;;15.43;13.35;;;;;;;14.87;100.00;98278.72;4095900;28;20263;-44
2023/05/21 02:22:13;;;;;;;14.07;12.98;;;;;;;14.88;100.00;98274.88;4096715;28;20260;-43
2023/05/21 02:24:15;;;;;;;14.00;12.88;;;;;;;14.86;100.00;98271.59;4097976;28;20753;-44
2023/05/21 02:26:21;;;;;;;14.02;12.35;;;;;;;14.81;100.00;98268.84;4082109;29;20215;-44
2023/05/21 02:28:23;;;;;;;15.68;14.38;;;;;;;14.80;100.00;98267.19;4094354;28;20707;-44
2023/05/21 02:30:24;;;;;;;14.82;13.73;;;;;;;14.77;100.00;98271.34;4095928;28;20282;-44
2023/05/21 02:32:26;;;;;;;14.55;13.45;;;;;;;14.79;100.00;98266.41;4094174;28;20577;-45
2023/05/21 02:34:31;;;;;;;15.20;14.00;;;;;;;14.82;100.00;98265.81;4087357;28;20203;-44
2023/05/21 02:36:34;;;;;;;13.38;12.18;;;;;;;14.83;100.00;98261.13;4098144;28;20657;-44
2023/05/21 02:38:37;;;;;;;15.75;14.50;;;;;;;14.77;100.00;98257.56;4087088;28;20708;-44
2023/05/21 02:40:39;;;;;;;15.57;14.48;;;;;;;14.75;100.00;98262.53;4095208;28;20666;-45
2023/05/21 02:42:41;;;;;;;19.45;12.80;;;;;;;14.82;100.00;98260.31;4095403;28;20232;-45
2023/05/21 02:44:42;;;;;;;13.70;12.68;;;;;;;14.74;100.00;98258.16;4083239;29;20238;-44
2023/05/21 02:46:44;;;;;;;14.80;13.60;;;;;;;14.70;100.00;98259.81;4092672;28;20212;-44
2023/05/21 02:48:46;;;;;;;15.00;13.82;;;;;;;14.71;100.00;98252.38;4094622;28;20571;-43
2023/05/21 02:50:48;;;;;;;14.20;13.20;;;;;;;14.75;100.00;98254.28;4096585;28;20741;-44
2023/05/21 02:52:51;;;;;;;15.93;14.63;;;;;;;14.67;100.00;98246.63;4094718;28;20637;-44
2023/05/21 02:54:52;;;;;;;16.10;14.98;;;;;;;14.63;100.00;98245.53;4092205;28;20266;-44
2023/05/21 02:56:54;;;;;;;14.63;13.63;;;;;;;14.62;100.00;98254.09;4098429;28;20594;-45
2023/05/21 02:58:56;;;;;;;14.00;12.90;;;;;;;14.59;100.00;98258.22;4090672;28;20216;-45
2023/05/21 03:00:58;;;;;;;14.55;13.45;;;;;;;14.70;100.00;98251.53;4092477;28;20216;-44
2023/05/21 03:03:00;;;;;;;14.57;13.40;;;;;;;14.60;100.00;98251.59;4097802;28;20215;-45
2023/05/21 03:05:02;;;;;;;14.43;13.32;;;;;;;14.74;100.00;98258.16;4098182;28;20803;-44
2023/05/21 03:07:05;;;;;;;15.43;14.27;;;;;;;14.63;100.00;98250.22;4101836;28;20210;-44
2023/05/21 03:09:09;;;;;;;14.70;13.60;;;;;;;14.67;100.00;98251.28;4097148;28;20207;-45
2023/05/21 03:11:11;;;;;;;14.80;13.63;;;;;;;14.59;100.00;98254.63;4096198;28;20207;-44
2023/05/21 03:13:13;;;;;;;16.38;15.15;;;;;;;14.45;100.00;98248.09;4082094;29;20212;-44
2023/05/21 03:15:15;;;;;;;14.35;13.02;;;;;;;14.56;100.00;98249.69;4100321;28;20218;-44
2023/05/21 03:17:17;;;;;;;14.60;13.50;;;;;;;14.53;100.00;98253.84;4097048;28;20306;-44
2023/05/21 03:19:20;;;;;;;14.93;13.73;;;;;;;14.61;100.00;98247.75;4109099;28;20211;-45
2023/05/21 03:21:22;;;;;;;14.30;13.15;;;;;;;14.58;100.00;98248.28;4112381;28;20282;-44
2023/05/21 03:23:23;;;;;;;14.82;13.63;;;;;;;14.59;100.00;98244.47;4098404;28;20210;-44
2023/05/21 03:25:26;;;;;;;14.07;12.82;;;;;;;14.66;100.00;98244.13;4107079;28;20235;-44
2023/05/21 03:27:27;;;;;;;15.52;14.32;;;;;;;14.66;100.00;98244.97;4088302;28;20219;-44
2023/05/21 03:29:29;;;;;;;13.80;12.60;;;;;;;14.60;100.00;98239.75;4100331;28;20755;-44
2023/05/21 03:31:31;;;;;;;14.73;13.57;;;;;;;14.58;100.00;98248.28;4094584;28;20337;-46
2023/05/21 03:33:33;;;;;;;13.50;12.50;;;;;;;14.55;100.00;98242.53;4098620;28;20328;-44
2023/05/21 03:35:35;;;;;;;14.82;13.48;;;;;;;14.55;100.00;98246.13;4076091;29;20212;-44
2023/05/21 03:37:37;;;;;;;14.13;13.13;;;;;;;14.60;100.00;98256.28;4077291;29;20238;-44
2023/05/21 03:39:39;;;;;;;15.05;13.95;;;;;;;14.55;100.00;98248.88;4093150;28;20662;-44
2023/05/21 03:41:41;;;;;;;15.00;13.60;;;;;;;14.55;100.00;98253.53;4098827;28;20227;-43
2023/05/21 03:43:42;;;;;;;13.57;12.48;;;;;;;14.57;100.00;98245.84;4095309;28;20231;-44
2023/05/21 03:45:44;;;;;;;14.57;13.13;;;;;;;14.60;100.00;98243.34;4082344;29;20288;-44
2023/05/21 03:47:47;;;;;;;14.93;13.85;;;;;;;14.53;100.00;98251.09;4082594;28;20220;-43
2023/05/21 03:49:49;;;;;;;14.95;13.73;;;;;;;14.56;100.00;98245.00;4091805;28;20214;-44
2023/05/21 03:51:51;;;;;;;13.68;12.43;;;;;;;14.62;100.00;98249.38;4095165;28;20235;-44
2023/05/21 03:53:53;;;;;;;13.60;12.50;;;;;;;14.66;100.00;98246.88;4096235;28;20223;-44
2023/05/21 03:55:55;;;;;;;15.02;13.75;;;;;;;14.54;100.00;98249.13;4097808;28;20214;-44
2023/05/21 03:57:56;;;;;;;13.88;12.82;;;;;;;14.58;100.00;98248.28;4098739;28;20214;-44
2023/05/21 03:59:58;;;;;;;15.05;13.85;;;;;;;14.54;100.00;98251.91;4097472;28;20262;-44
2023/05/21 04:02:00;;;;;;;14.65;13.38;;;;;;;14.48;100.00;98253.84;4080389;29;20326;-44
2023/05/21 04:04:02;;;;;;;13.05;11.95;;;;;;;14.52;100.00;98252.19;4090353;28;20258;-44
2023/05/21 04:06:04;;;;;;;13.77;12.77;;;;;;;14.56;100.00;98252.47;4079035;28;20236;-44
2023/05/21 04:08:06;;;;;;;15.35;14.15;;;;;;;14.53;100.00;98256.59;4086694;28;20223;-44
2023/05/21 04:10:08;;;;;;;13.75;12.55;;;;;;;14.54;100.00;98252.72;4086215;28;20616;-44
2023/05/21 04:12:09;;;;;;;14.23;13.18;;;;;;;14.59;100.00;98255.47;4091140;28;20239;-45
2023/05/21 04:14:11;;;;;;;14.23;13.13;;;;;;;14.57;100.00;98254.09;4089710;28;20223;-44
2023/05/21 04:16:17;;;;;;;13.90;12.77;;;;;;;14.64;100.00;98257.38;4095382;28;20223;-45
2023/05/21 04:18:22;;;;;;;14.48;13.15;;;;;;;14.52;100.00;98249.44;4094007;28;20206;-45
2023/05/21 04:20:24;;;;;;;13.07;12.10;;;;;;;14.54;100.00;98255.47;4096243;28;20242;-44
2023/05/21 04:22:26;;;;;;;15.40;13.88;;;;;;;14.57;100.00;98256.84;4097092;28;20227;-44
2023/05/21 04:24:28;;;;;;;12.05;11.05;;;;;;;14.49;100.00;98255.50;4094145;28;20757;-44
2023/05/21 04:26:32;;;;;;;14.57;13.15;;;;;;;14.49;100.00;98257.44;4094313;28;20306;-45
2023/05/21 04:28:35;;;;;;;16.23;14.85;;;;;;;14.57;100.00;98257.66;4107767;28;20920;-45
2023/05/21 04:30:37;;;;;;;14.63;13.32;;;;;;;14.58;100.00;98253.78;4095142;28;20621;-44
2023/05/21 04:32:39;;;;;;;13.88;12.77;;;;;;;14.67;100.00;98257.63;4097566;28;20241;-44
2023/05/21 04:34:40;;;;;;;15.27;14.07;;;;;;;14.60;100.00;98254.34;4097575;28;20649;-45
2023/05/21 04:36:46;;;;;;;14.25;13.20;;;;;;;14.62;100.00;98265.91;4092274;28;20223;-44
2023/05/21 04:38:48;;;;;;;13.80;12.68;;;;;;;14.61;100.00;98261.50;4105223;28;20218;-43
2023/05/21 04:40:50;;;;;;;13.60;12.60;;;;;;;14.71;100.00;98263.41;4095459;28;20219;-45
2023/05/21 04:42:52;;;;;;;12.57;11.68;;;;;;;14.74;100.00;98257.31;4093566;28;20237;-44
2023/05/21 04:44:54;;;;;;;13.52;12.43;;;;;;;14.84;100.00;98260.84;4080403;28;20235;-44
2023/05/21 04:46:56;;;;;;;13.50;12.43;;;;;;;14.81;100.00;98269.69;4094499;28;20227;-44
2023/05/21 04:49:01;;;;;;;13.02;12.02;;;;;;;14.78;100.00;98270.25;4088427;28;20212;-44
2023/05/21 04:51:05;;;;;;;14.55;13.45;;;;;;;14.86;100.00;98266.06;4094803;28;20223;-44
2023/05/21 04:53:07;;;;;;;14.77;13.38;;;;;;;14.89;100.00;98266.31;4097373;28;20215;-44
2023/05/21 04:55:09;;;;;;;13.90;12.15;;;;;;;14.92;100.00;98273.22;4099572;28;20720;-43
2023/05/21 04:57:10;;;;;;;15.18;13.90;;;;;;;14.92;100.00;98268.53;4094832;28;20266;-45
2023/05/21 04:59:13;;;;;;;14.50;12.95;;;;;;;15.01;100.00;98266.81;4091877;28;20217;-45
2023/05/21 05:01:15;;;;;;;12.35;11.25;;;;;;;15.02;100.00;98271.22;4092631;28;20204;-44
2023/05/21 05:03:17;;;;;;;15.30;14.00;;;;;;;15.05;100.00;98265.16;4094570;28;20208;-45
2023/05/21 05:05:19;;;;;;;13.93;12.63;;;;;;;15.10;100.00;98273.38;4095589;28;20234;-44
2023/05/21 05:07:21;;;;;;;14.93;13.68;;;;;;;15.08;100.00;98261.81;4096176;28;20223;-44
2023/05/21 05:09:24;;;;;;;13.07;12.18;;;;;;;15.15;100.00;98265.06;4106115;28;20680;-44
2023/05/21 05:11:25;;;;;;;12.52;11.52;;;;;;;15.20;100.00;98267.81;4111502;28;20597;-44
2023/05/21 05:13:27;;;;;;;13.75;12.45;;;;;;;15.24;100.00;98263.34;4084743;28;20610;-44
2023/05/21 05:15:29;;;;;;;14.43;13.23;;;;;;;15.31;100.00;98265.81;4089897;28;20219;-44
2023/05/21 05:17:34;;;;;;;14.05;12.95;;;;;;;15.33;100.00;98267.19;4076102;29;20204;-44
2023/05/21 05:19:36;;;;;;;16.40;13.02;;;;;;;15.37;100.00;98262.75;4107458;28;20733;-44
2023/05/21 05:21:38;;;;;;;14.27;13.27;;;;;;;15.49;100.00;98271.47;4095486;28;20227;-44
2023/05/21 05:23:39;;;;;;;15.00;13.80;;;;;;;15.58;100.00;98267.00;4095294;28;20684;-44
2023/05/21 05:25:41;;;;;;;13.05;12.02;;;;;;;15.66;100.00;98266.38;4090342;28;20235;-45
2023/05/21 05:27:43;;;;;;;14.32;13.27;;;;;;;15.68;100.00;98277.13;4094457;28;20262;-45
2023/05/21 05:29:45;;;;;;;12.55;11.65;;;;;;;15.81;100.00;98263.50;4092502;28;20701;-44
2023/05/21 05:31:47;;;;;;;13.85;12.75;;;;;;;15.89;100.00;98260.09;4094375;28;20255;-44
2023/05/21 05:33:49;;;;;;;13.55;12.45;;;;;;;16.08;100.00;98257.44;4090951;28;20211;-44
2023/05/21 05:35:50;;;;;;;15.48;11.82;;;;;;;16.18;100.00;98263.69;4077363;29;20298;-44
2023/05/21 05:37:52;;;;;;;13.43;12.10;;;;;;;16.31;100.00;98257.47;4096044;28;20215;-43
2023/05/21 05:39:54;;;;;;;12.48;11.48;;;;;;;16.44;100.00;98259.53;4101884;28;20211;-44
2023/05/21 05:41:56;;;;;;;13.75;12.65;;;;;;;16.49;100.00;98251.19;4095424;28;20251;-44
2023/05/21 05:43:58;;;;;;;13.02;11.93;;;;;;;16.26;100.00;98264.97;4090756;28;20659;-45
2023/05/21 05:46:00;;;;;;;15.15;13.90;;;;;;;16.38;100.00;98257.97;4091025;28;20249;-44
2023/05/21 05:48:02;;;;;;;15.85;12.43;;;;;;;16.44;100.00;98267.81;4092253;28;20215;-46
2023/05/21 05:50:04;;;;;;;12.95;11.95;;;;;;;16.41;100.00;98268.44;4094949;28;20277;-45
2023/05/21 05:52:06;;;;;;;13.63;12.63;;;;;;;16.34;100.00;98261.56;4093405;28;20306;-44
2023/05/21 05:54:08;;;;;;;12.38;11.52;;;;;;;16.44;100.00;98267.81;4094564;28;20284;-44
2023/05/21 05:56:10;;;;;;;13.88;12.73;;;;;;;16.56;100.00;98264.69;4092059;28;20211;-45
2023/05/21 05:58:11;;;;;;;13.57;12.20;;;;;;;16.49;100.00;98258.69;4104810;28;20273;-44
2023/05/21 06:00:14;;;;;;;12.90;11.90;;;;;;;16.56;100.00;98268.25;4089775;28;20211;-44
2023/05/21 06:02:15;;;;;;;12.15;11.25;;;;;;;16.61;100.00;98268.19;4089375;28;20733;-44
2023/05/21 06:04:17;;;;;;;12.23;11.32;;;;;;;16.58;100.00;98274.31;4097898;28;20203;-44
2023/05/21 06:06:19;;;;;;;13.52;12.43;;;;;;;16.68;100.00;98263.13;4090611;28;20350;-45
2023/05/21 06:08:22;;;;;;;13.88;12.77;;;;;;;16.61;100.00;98268.19;4079434;29;20733;-44
2023/05/21 06:10:23;;;;;;;14.15;12.98;;;;;;;16.62;100.00;98253.25;4104786;28;20210;-45
2023/05/21 06:12:28;;;;;;;12.93;12.00;;;;;;;16.56;100.00;98265.47;4095108;28;20231;-44
2023/05/21 06:14:30;;;;;;;19.92;12.27;;;;;;;16.70;100.00;98266.41;4086696;28;20211;-44
2023/05/21 06:16:32;;;;;;;14.50;13.30;;;;;;;16.72;100.00;98269.72;4105536;28;20263;-44
2023/05/21 06:18:35;;;;;;;12.88;11.88;;;;;;;16.77;100.00;98258.59;4089586;28;20246;-44
2023/05/21 06:20:36;;;;;;;12.07;11.18;;;;;;;16.90;100.00;98266.16;4089671;28;20212;-46
2023/05/21 06:22:38;;;;;;;12.48;11.27;;;;;;;16.93;100.00;98269.13;4096200;28;20450;-44
2023/05/21 06:24:40;;;;;;;11.77;10.63;;;;;;;17.05;100.00;98264.00;4092655;28;20680;-44
2023/05/21 06:26:42;;;;;;;11.88;10.85;;;;;;;17.15;100.00;98263.03;4096115;28;20631;-45
2023/05/21 06:28:43;;;;;;;11.80;10.90;;;;;;;17.13;100.00;98265.28;4095152;28;20218;-44
2023/05/21 06:30:45;;;;;;;13.10;12.10;;;;;;;17.30;100.00;98260.03;4098844;28;20254;-44
2023/05/21 06:32:47;;;;;;;11.48;10.45;;;;;;;17.29;100.00;98263.94;4099446;28;20683;-44
2023/05/21 06:34:49;;;;;;;13.73;12.70;;;;;;;17.28;100.00;98262.28;4094797;28;20589;-44
2023/05/21 06:36:51;;;;;;;12.48;11.50;;;;;;;17.47;99.54;98265.91;4081401;28;20216;-44
2023/05/21 06:38:53;;;;;;;11.55;10.30;;;;;;;17.37;99.43;98263.28;4081804;29;20279;-43
2023/05/21 06:40:54;;;;;;;12.13;11.13;;;;;;;17.42;98.95;98257.69;4096267;28;20219;-44
2023/05/21 06:42:58;;;;;;;11.13;10.30;;;;;;;17.21;98.51;98256.31;4097145;28;20231;-44
2023/05/21 06:45:00;;;;;;;11.48;10.45;;;;;;;17.40;98.64;98257.19;4097613;28;20219;-44
2023/05/21 06:47:02;;;;;;;11.95;11.05;;;;;;;17.45;98.01;98257.09;4092964;28;20235;-44
2023/05/21 06:49:05;;;;;;;11.88;11.07;;;;;;;17.45;98.67;98262.63;4100689;28;20461;-46
2023/05/21 06:51:07;;;;;;;11.07;10.27;;;;;;;17.30;97.91;98260.88;4097180;28;20294;-44
2023/05/21 06:53:09;;;;;;;12.82;11.45;;;;;;;17.33;98.26;98263.03;4100241;28;20211;-44
2023/05/21 06:55:11;;;;;;;12.23;11.23;;;;;;;17.45;99.27;98262.63;4098835;28;20626;-45
2023/05/21 06:57:14;;;;;;;11.40;10.30;;;;;;;17.55;97.79;98263.28;4096009;28;20215;-44
2023/05/21 06:59:16;;;;;;;12.88;11.57;;;;;;;17.57;98.00;98266.56;4093641;28;20214;-44
2023/05/21 07:01:18;;;;;;;11.45;10.60;;;;;;;17.57;97.43;98271.28;4093544;28;20386;-44
2023/05/21 07:03:20;;;;;;;12.32;11.32;;;;;;;17.81;97.25;98266.47;4094247;28;20337;-44
2023/05/21 07:05:22;;;;;;;11.60;10.70;;;;;;;17.73;97.02;98269.94;4097282;28;20235;-45
2023/05/21 07:07:24;;;;;;;11.73;10.73;;;;;;;17.69;96.36;98274.41;4099456;28;20215;-44
2023/05/21 07:09:25;;;;;;;11.63;10.63;;;;;;;17.74;97.00;98271.56;4099605;28;20207;-44
2023/05/21 07:11:27;;;;;;;12.48;11.57;;;;;;;17.86;96.68;98280.22;4091122;28;20230;-44
2023/05/21 07:13:29;;;;;;;13.40;12.40;;;;;;;17.90;96.84;98282.09;4081708;29;20218;-44
2023/05/21 07:15:31;;;;;;;12.95;11.82;;;;;;;17.73;97.67;98275.47;4097842;28;20218;-44
2023/05/21 07:17:33;;;;;;;11.68;10.77;;;;;;;17.83;97.26;98272.50;4097424;28;20211;-44
2023/05/21 07:19:36;;;;;;;11.70;10.90;;;;;;;17.83;96.53;98275.28;4096237;28;20806;-44
2023/05/21 07:21:38;;;;;;;11.85;10.68;;;;;;;17.97;96.52;98271.44;4077757;29;20235;-44
2023/05/21 07:23:40;;;;;;;11.55;10.30;;;;;;;18.12;96.44;98268.38;4093312;28;20251;-44
2023/05/21 07:25:42;;;;;;;14.95;10.55;;;;;;;18.20;96.34;98275.19;4080163;29;20232;-45
2023/05/21 07:27:44;;;;;;;11.70;10.90;;;;;;;18.26;95.48;98266.47;4092628;28;20219;-44
2023/05/21 07:29:45;;;;;;;12.13;11.02;;;;;;;18.24;96.57;98262.38;4096279;28;20254;-44
2023/05/21 07:31:47;;;;;;;12.15;11.00;;;;;;;18.37;95.67;98265.19;4098235;28;20238;-44
2023/05/21 07:33:49;;;;;;;12.00;10.90;;;;;;;18.45;95.42;98267.25;4091853;28;20216;-44
2023/05/21 07:35:59;;;;;;;11.30;10.20;;;;;;;18.56;94.55;98262.31;4079307;29;20227;-44
2023/05/21 07:38:01;;;;;;;11.10;10.30;;;;;;;18.48;94.79;98263.88;4091484;28;20335;-45
2023/05/21 07:40:05;;;;;;;12.68;11.48;;;;;;;18.46;95.36;98273.63;4105400;28;20210;-44
2023/05/21 07:42:06;;;;;;;11.32;10.38;;;;;;;18.58;95.87;98263.66;4097215;28;20699;-44
2023/05/21 07:44:08;;;;;;;11.95;10.82;;;;;;;18.66;94.98;98268.47;4097597;28;20219;-44
2023/05/21 07:46:10;;;;;;;11.90;11.00;;;;;;;18.74;94.98;98264.16;4096725;28;20290;-44
2023/05/21 07:48:13;;;;;;;11.70;10.82;;;;;;;18.80;94.67;98265.72;4097423;28;20207;-44
2023/05/21 07:50:15;;;;;;;12.43;11.35;;;;;;;18.81;94.48;98264.59;4072085;29;20592;-44
2023/05/21 07:52:16;;;;;;;11.48;10.65;;;;;;;18.88;94.47;98264.97;4090777;28;20238;-44
2023/05/21 07:54:18;;;;;;;12.52;11.52;;;;;;;18.72;95.05;98260.91;4109258;28;20660;-43
2023/05/21 07:56:20;;;;;;;10.93;10.02;;;;;;;18.78;95.13;98262.44;4110599;28;20210;-43
2023/05/21 07:58:22;;;;;;;11.13;10.23;;;;;;;18.89;95.35;98256.38;4099285;28;20203;-44
2023/05/21 08:00:24;;;;;;;11.32;10.43;;;;;;;18.94;95.24;98260.97;4096997;28;20242;-44
2023/05/21 08:02:26;;;;;;;11.50;10.60;;;;;;;18.96;95.29;98258.69;4084467;28;20432;-44
2023/05/21 08:04:28;;;;;;;12.02;10.98;;;;;;;18.79;94.75;98264.06;4096858;28;20696;-44
2023/05/21 08:06:30;;;;;;;12.15;10.95;;;;;;;18.88;94.80;98259.44;4081638;28;20591;-45
2023/05/21 08:08:32;;;;;;;10.10;9.35;;;;;;;19.07;94.86;98257.34;4096112;28;20265;-43
2023/05/21 08:10:34;;;;;;;11.43;10.63;;;;;;;18.99;94.24;98252.56;4106937;28;20210;-47
2023/05/21 08:12:36;;;;;;;11.35;10.48;;;;;;;18.96;95.00;98253.16;4081775;29;20235;-44
2023/05/21 08:14:38;;;;;;;10.93;10.02;;;;;;;18.96;93.99;98256.75;4093893;28;20223;-43
2023/05/21 08:16:39;;;;;;;12.90;11.90;;;;;;;19.07;94.11;98251.81;4075527;29;20260;-44
2023/05/21 08:18:41;;;;;;;10.77;10.05;;;;;;;18.95;95.16;98251.53;4097551;28;20214;-44
2023/05/21 08:20:43;;;;;;;11.75;10.98;;;;;;;19.13;94.30;98256.13;4080073;29;20220;-43
2023/05/21 08:22:45;;;;;;;11.25;10.45;;;;;;;19.13;94.29;98253.34;4094677;28;20326;-43
2023/05/21 08:24:48;;;;;;;11.02;10.23;;;;;;;19.13;93.73;98250.56;4097339;28;20211;-44
2023/05/21 08:26:50;;;;;;;11.25;10.45;;;;;;;19.03;93.66;98246.06;4091951;28;20777;-45
2023/05/21 08:28:52;;;;;;;12.07;11.07;;;;;;;19.18;93.64;98254.03;4080141;29;20211;-44
2023/05/21 08:30:54;;;;;;;11.82;10.93;;;;;;;19.23;94.00;98251.19;4077727;29;20216;-43
2023/05/21 08:32:56;;;;;;;12.63;11.63;;;;;;;19.25;94.00;98254.47;4092597;28;20703;-43
2023/05/21 08:34:59;;;;;;;13.02;11.90;;;;;;;19.24;93.43;98261.16;4098296;28;20364;-45
2023/05/21 08:37:01;;;;;;;11.23;10.43;;;;;;;19.37;94.17;98256.72;4090610;28;20326;-44
2023/05/21 08:39:04;;;;;;;11.23;10.43;;;;;;;19.36;93.54;98246.72;4097455;28;21887;-44
2023/05/21 08:41:07;;;;;;;14.65;10.60;;;;;;;19.52;93.18;98253.56;4079377;29;21081;-44
2023/05/21 08:43:12;;;;;;;11.90;10.77;;;;;;;19.57;92.26;98257.03;4095499;28;20216;-46
2023/05/21 08:45:20;;;;;;;10.32;9.45;;;;;;;19.61;93.01;98257.22;4094235;28;20226;-45
2023/05/21 08:47:25;;;;;;;11.98;11.05;;;;;;;19.69;92.59;98253.69;4090845;28;20305;-44
2023/05/21 08:49:30;;;;;;;11.48;10.57;;;;;;;19.85;91.84;98261.34;4097377;28;20203;-44
2023/05/21 08:51:31;;;;;;;11.90;10.88;;;;;;;19.83;92.12;98251.69;4091142;28;20233;-45
2023/05/21 08:53:33;;;;;;;11.80;10.85;;;;;;;19.82;91.53;98256.44;4099830;28;20218;-44
2023/05/21 08:55:35;;;;;;;12.05;11.00;;;;;;;19.90;90.43;98254.84;4078957;29;20600;-46
2023/05/21 08:57:42;;;;;;;10.63;9.93;;;;;;;20.06;90.80;98256.13;4091811;28;20298;-43
2023/05/21 08:59:44;;;;;;;11.88;10.93;;;;;;;20.10;90.48;98251.59;4078657;29;20677;-45
2023/05/21 09:01:48;;;;;;;12.00;11.02;;;;;;;20.29;90.24;98258.56;4109089;28;20234;-44
2023/05/21 09:03:51;;;;;;;11.38;10.52;;;;;;;20.36;89.16;98258.09;4096521;28;20214;-45
2023/05/21 09:05:58;;;;;;;11.32;10.43;;;;;;;20.39;88.41;98251.91;4100148;28;20217;-44
2023/05/21 09:08:08;;;;;;;11.80;10.88;;;;;;;20.15;88.13;98257.00;4080839;29;20732;-44
2023/05/21 09:10:12;;;;;;;10.75;10.00;;;;;;;20.42;90.21;98251.25;4099225;28;20213;-44
2023/05/21 09:12:14;;;;;;;11.38;10.57;;;;;;;20.82;88.27;98244.53;4092890;28;20237;-45
2023/05/21 09:14:16;;;;;;;11.20;9.65;;;;;;;21.02;87.05;98250.38;4093964;28;20262;-45
2023/05/21 09:16:18;;;;;;;11.50;10.13;;;;;;;21.27;86.06;98246.81;4097201;28;20202;-46
2023/05/21 09:18:19;;;;;;;12.40;11.45;;;;;;;21.49;84.91;98249.44;4095940;28;20199;-43
2023/05/21 09:20:26;;;;;;;11.80;10.95;;;;;;;21.78;84.10;98251.59;4087485;28;20214;-44